Time;durP1;ratioP1;P1;durP2;ratioP2;P2;SDS_P1;SDS_P2;PMS_P1;PMS_P2;Temp;Humidity;BMP_temperature;BMP_pressure;BME280_temperature;BME280_humidity;BME280_pressure;Samples;Min_cycle;Max_cycle;Signal;HPM_P1;HPM_P2
2022/11/21 00:00:48;;;;;;;28.13;20.10;;;0.80;99.90;;;;;;5019426;28;20045;-64
2022/11/21 00:03:14;;;;;;;25.73;20.17;;;0.80;99.90;;;;;;5036700;28;20483;-64
2022/11/21 00:05:42;;;;;;;27.40;18.77;;;0.90;99.90;;;;;;5018529;28;20044;-64
2022/11/21 00:08:09;;;;;;;26.45;20.17;;;1.00;99.90;;;;;;5037809;28;20044;-65
2022/11/21 00:10:36;;;;;;;25.10;19.60;;;0.80;99.90;;;;;;5032803;28;20445;-63
2022/11/21 00:13:02;;;;;;;30.33;20.92;;;0.90;99.90;;;;;;5035351;28;20129;-63
2022/11/21 00:15:28;;;;;;;29.88;20.73;;;0.80;99.90;;;;;;5038173;28;20124;-63
2022/11/21 00:17:53;;;;;;;29.20;21.33;;;0.70;99.90;;;;;;5037749;28;20073;-63
2022/11/21 00:20:21;;;;;;;28.30;20.50;;;0.70;99.90;;;;;;5034214;28;20160;-65
2022/11/21 00:22:47;;;;;;;30.70;20.98;;;0.50;99.90;;;;;;5036172;28;20116;-65
2022/11/21 00:25:13;;;;;;;28.40;20.25;;;0.50;99.90;;;;;;5036481;28;20045;-64
2022/11/21 00:27:40;;;;;;;27.77;20.95;;;0.50;99.90;;;;;;5016521;28;20539;-63
2022/11/21 00:30:07;;;;;;;29.40;21.27;;;0.40;99.90;;;;;;5035553;28;20418;-63
2022/11/21 00:32:35;;;;;;;31.27;22.33;;;0.30;99.90;;;;;;5037467;28;20926;-63
2022/11/21 00:35:00;;;;;;;31.92;23.17;;;0.10;99.90;;;;;;5035093;28;20126;-63
2022/11/21 00:37:26;;;;;;;29.08;21.80;;;0.00;99.90;;;;;;5035756;28;20119;-65
2022/11/21 00:39:52;;;;;;;32.33;23.10;;;0.10;99.90;;;;;;5002426;28;20699;-64
2022/11/21 00:42:17;;;;;;;34.20;23.40;;;-0.20;99.90;;;;;;5033237;28;20309;-64
2022/11/21 00:44:43;;;;;;;33.88;23.52;;;-0.20;99.90;;;;;;5033622;28;20048;-64
2022/11/21 00:47:09;;;;;;;32.03;22.25;;;-0.20;99.90;;;;;;5018616;28;20348;-64
2022/11/21 00:49:34;;;;;;;32.25;22.67;;;-0.40;99.90;;;;;;5036988;28;20044;-64
2022/11/21 00:52:00;;;;;;;33.83;23.55;;;-0.30;99.90;;;;;;5034744;28;20561;-63
2022/11/21 00:54:26;;;;;;;32.50;22.45;;;-0.50;99.90;;;;;;5037675;28;20124;-64
2022/11/21 00:56:51;;;;;;;33.10;24.02;;;-0.50;99.90;;;;;;5034187;28;20076;-65
2022/11/21 00:59:17;;;;;;;36.30;24.77;;;-0.60;99.90;;;;;;5013414;28;20060;-65
2022/11/21 01:01:43;;;;;;;35.53;24.50;;;-0.70;99.90;;;;;;5020883;28;20060;-64
2022/11/21 01:04:08;;;;;;;34.00;23.75;;;-0.80;99.90;;;;;;5021122;28;20054;-64
2022/11/21 01:06:37;;;;;;;34.17;23.35;;;-0.70;99.90;;;;;;5054840;28;20191;-65
2022/11/21 01:09:03;;;;;;;37.33;25.40;;;-0.60;99.90;;;;;;5021257;28;20043;-65
2022/11/21 01:11:32;;;;;;;37.38;26.13;;;-1.00;99.90;;;;;;5056130;28;20379;-65
2022/11/21 01:13:58;;;;;;;36.60;24.52;;;-0.80;99.90;;;;;;5034782;28;20116;-65
2022/11/21 01:16:26;;;;;;;38.80;26.45;;;-1.00;99.90;;;;;;5020509;28;20033;-63
2022/11/21 01:18:52;;;;;;;39.40;27.70;;;-1.10;99.90;;;;;;5056115;28;20080;-63
2022/11/21 01:21:28;;;;;;;40.55;26.95;;;-1.20;99.90;;;;;;5054947;28;20174;-63
2022/11/21 01:23:54;;;;;;;38.13;26.52;;;-0.90;99.90;;;;;;5036927;28;20457;-64
2022/11/21 01:26:26;;;;;;;40.42;27.33;;;-1.00;99.90;;;;;;5037262;28;20048;-64
2022/11/21 01:28:52;;;;;;;41.92;28.02;;;-1.00;99.90;;;;;;5056091;28;20036;-64
2022/11/21 01:31:26;;;;;;;41.83;28.83;;;-1.10;99.90;;;;;;5051984;28;20533;-63
2022/11/21 01:33:53;;;;;;;42.78;28.67;;;-1.30;99.90;;;;;;5021746;28;20048;-63
2022/11/21 01:36:21;;;;;;;42.05;27.77;;;-1.40;99.90;;;;;;5055391;28;20346;-64
2022/11/21 01:38:49;;;;;;;44.15;28.73;;;-1.20;99.90;;;;;;5035306;28;20087;-65
2022/11/21 01:41:19;;;;;;;41.47;28.95;;;-1.20;99.90;;;;;;5037060;28;20120;-65
2022/11/21 01:43:46;;;;;;;43.50;29.85;;;-1.10;99.90;;;;;;5037864;28;20588;-64
2022/11/21 01:46:14;;;;;;;44.97;29.25;;;-1.20;99.90;;;;;;5051684;28;20032;-64
2022/11/21 01:48:52;;;;;;;40.88;28.80;;;-0.90;99.90;;;;;;5055753;28;20044;-64
2022/11/21 01:51:27;;;;;;;46.38;30.48;;;-0.80;99.90;;;;;;5053597;28;20148;-64
2022/11/21 01:54:14;;;;;;;41.05;29.95;;;-0.70;99.90;;;;;;5053730;28;20050;-63
2022/11/21 01:57:09;;;;;;;39.58;28.77;;;-0.70;99.90;;;;;;5036314;28;20040;-62
2022/11/21 01:59:48;;;;;;;41.92;29.38;;;-0.70;99.90;;;;;;5003078;28;20130;-63
2022/11/21 02:02:16;;;;;;;40.55;29.05;;;-0.40;99.90;;;;;;5051919;28;20701;-63
2022/11/21 02:04:43;;;;;;;42.30;29.40;;;-0.40;99.90;;;;;;5055706;28;20037;-64
2022/11/21 02:07:11;;;;;;;41.08;28.45;;;-0.20;99.90;;;;;;5019970;28;20045;-64
2022/11/21 02:09:44;;;;;;;39.30;29.25;;;-0.30;99.90;;;;;;5035149;28;20044;-64
2022/11/21 02:12:45;;;;;;;40.88;28.60;;;-0.20;99.90;;;;;;5020525;28;20056;-64
2022/11/21 02:15:11;;;;;;;38.17;28.25;;;-0.20;99.90;;;;;;5048298;28;20104;-63
2022/11/21 02:17:37;;;;;;;38.05;27.40;;;-0.30;99.90;;;;;;5032703;28;20114;-66
2022/11/21 02:20:06;;;;;;;36.55;26.00;;;-0.10;99.90;;;;;;5053986;28;20449;-64
2022/11/21 02:22:54;;;;;;;41.38;28.23;;;0.00;99.90;;;;;;5036366;28;20041;-64
2022/11/21 02:25:32;;;;;;;37.10;28.10;;;-0.10;99.90;;;;;;5033790;28;20051;-65
2022/11/21 02:28:01;;;;;;;37.20;28.05;;;0.20;99.90;;;;;;5055184;28;20036;-64
2022/11/21 02:30:29;;;;;;;38.65;27.40;;;0.20;99.90;;;;;;5036280;28;20161;-65
2022/11/21 02:32:55;;;;;;;38.10;26.77;;;0.10;99.90;;;;;;5051082;28;20037;-64
2022/11/21 02:35:21;;;;;;;33.35;25.30;;;0.20;99.90;;;;;;5036315;28;20033;-63
2022/11/21 02:37:57;;;;;;;34.63;26.85;;;0.30;99.90;;;;;;5036776;28;20041;-63
2022/11/21 02:40:31;;;;;;;36.95;26.38;;;0.30;99.90;;;;;;5017971;28;20044;-63
2022/11/21 02:43:09;;;;;;;35.05;25.83;;;0.30;99.90;;;;;;5036559;28;20048;-63
2022/11/21 02:45:39;;;;;;;34.17;25.77;;;0.10;99.90;;;;;;5036878;28;20040;-62
2022/11/21 02:48:06;;;;;;;35.55;25.77;;;0.30;99.90;;;;;;5034151;28;20040;-64
2022/11/21 02:50:34;;;;;;;34.67;25.33;;;0.20;99.90;;;;;;5017273;28;20037;-65
2022/11/21 02:53:01;;;;;;;33.70;24.98;;;0.10;99.90;;;;;;5020574;28;20037;-64
2022/11/21 02:55:27;;;;;;;33.10;25.98;;;0.30;99.90;;;;;;5035022;28;20056;-64
2022/11/21 02:57:53;;;;;;;34.08;25.55;;;0.10;99.90;;;;;;5019583;28;20094;-63
2022/11/21 03:00:20;;;;;;;35.97;26.35;;;0.30;99.90;;;;;;5054873;28;20610;-65
2022/11/21 03:02:45;;;;;;;33.75;25.88;;;0.40;99.90;;;;;;5034502;28;20041;-65
2022/11/21 03:05:14;;;;;;;32.38;24.98;;;0.20;99.90;;;;;;5000244;28;20052;-63
2022/11/21 03:07:41;;;;;;;35.92;25.52;;;0.40;99.90;;;;;;5036763;28;20441;-63
2022/11/21 03:10:07;;;;;;;35.28;26.38;;;0.40;99.90;;;;;;5035581;28;20036;-63
2022/11/21 03:12:35;;;;;;;36.53;26.60;;;0.30;99.90;;;;;;5034453;28;20049;-63
2022/11/21 03:15:02;;;;;;;32.50;25.98;;;0.50;99.90;;;;;;5054264;28;20055;-63
2022/11/21 03:17:27;;;;;;;36.30;26.67;;;0.40;99.90;;;;;;5035103;28;20052;-63
2022/11/21 03:19:53;;;;;;;33.65;25.05;;;0.40;99.90;;;;;;5035662;28;20294;-63
2022/11/21 03:22:18;;;;;;;38.78;27.98;;;0.40;99.90;;;;;;5018619;28;20127;-64
2022/11/21 03:24:44;;;;;;;36.88;27.27;;;0.20;99.90;;;;;;5053989;28;20524;-64
2022/11/21 03:27:10;;;;;;;36.42;26.83;;;0.50;99.90;;;;;;5034447;28;20521;-64
2022/11/21 03:29:35;;;;;;;35.83;25.30;;;0.30;99.90;;;;;;5021203;28;20071;-64
2022/11/21 03:32:01;;;;;;;36.65;25.95;;;0.60;99.90;;;;;;5037001;28;20090;-63
2022/11/21 03:34:27;;;;;;;34.15;25.73;;;0.60;99.90;;;;;;5034207;28;20127;-65
2022/11/21 03:36:52;;;;;;;33.90;26.08;;;0.60;99.90;;;;;;5051727;28;20045;-63
2022/11/21 03:39:18;;;;;;;33.30;25.48;;;0.50;99.90;;;;;;5036184;28;20048;-65
2022/11/21 03:41:44;;;;;;;34.42;26.10;;;0.70;99.90;;;;;;5035165;28;20041;-63
2022/11/21 03:44:11;;;;;;;34.67;26.85;;;0.70;99.90;;;;;;5036745;28;20052;-63
2022/11/21 03:46:42;;;;;;;35.25;25.85;;;0.50;99.90;;;;;;5058890;28;20474;-64
2022/11/21 03:49:09;;;;;;;36.80;26.92;;;0.70;99.90;;;;;;5038796;28;20227;-64
2022/11/21 03:51:35;;;;;;;33.25;25.90;;;0.60;99.90;;;;;;5058017;28;20075;-65
2022/11/21 03:54:02;;;;;;;32.55;25.83;;;0.50;99.90;;;;;;5037866;28;20123;-64
2022/11/21 03:56:27;;;;;;;34.53;25.77;;;0.60;99.90;;;;;;5045136;28;20493;-63
2022/11/21 03:58:53;;;;;;;35.20;26.92;;;0.60;99.90;;;;;;5057522;28;20452;-64
2022/11/21 04:01:19;;;;;;;36.42;26.92;;;0.50;99.90;;;;;;5057680;28;20052;-64
2022/11/21 04:03:45;;;;;;;34.70;26.15;;;0.60;99.90;;;;;;5040373;28;20416;-64
2022/11/21 04:06:13;;;;;;;38.30;26.90;;;0.70;99.90;;;;;;5037853;28;20044;-65
2022/11/21 04:08:39;;;;;;;36.28;27.63;;;0.50;99.90;;;;;;5038055;28;20256;-65
2022/11/21 04:11:04;;;;;;;38.95;26.25;;;0.60;99.90;;;;;;5039496;28;20078;-65
2022/11/21 04:13:30;;;;;;;34.40;27.27;;;0.70;99.90;;;;;;5038542;28;20044;-64
2022/11/21 04:15:56;;;;;;;35.20;26.83;;;0.70;99.90;;;;;;5040124;28;20444;-64
2022/11/21 04:18:22;;;;;;;34.38;26.73;;;0.70;99.90;;;;;;5024075;28;20055;-64
2022/11/21 04:20:47;;;;;;;37.80;28.02;;;0.60;99.90;;;;;;5038999;28;20170;-66
2022/11/21 04:23:13;;;;;;;38.63;27.30;;;0.70;99.90;;;;;;5040140;28;20224;-65
2022/11/21 04:25:42;;;;;;;36.22;27.27;;;0.70;99.90;;;;;;5004813;28;20047;-64
2022/11/21 04:28:13;;;;;;;36.80;28.20;;;0.50;99.90;;;;;;5038813;28;20594;-64
2022/11/21 04:30:38;;;;;;;37.13;27.45;;;0.70;99.90;;;;;;5058771;28;20045;-64
2022/11/21 04:33:04;;;;;;;37.03;26.60;;;0.70;99.90;;;;;;5023993;28;20050;-63
2022/11/21 04:35:30;;;;;;;37.55;27.73;;;0.50;99.90;;;;;;5055908;28;20098;-65
2022/11/21 04:37:55;;;;;;;39.88;28.67;;;0.50;99.90;;;;;;5057536;28;20042;-63
2022/11/21 04:40:21;;;;;;;40.72;29.80;;;0.50;99.90;;;;;;5036845;28;20080;-63
2022/11/21 04:42:47;;;;;;;38.80;30.17;;;0.70;99.90;;;;;;5056667;28;20081;-64
2022/11/21 04:45:14;;;;;;;41.22;29.23;;;0.60;99.90;;;;;;5056368;28;20521;-63
2022/11/21 04:47:42;;;;;;;40.25;28.15;;;0.60;99.90;;;;;;5058088;28;20044;-63
2022/11/21 04:50:09;;;;;;;40.38;28.83;;;0.60;99.90;;;;;;5058145;28;20044;-64
2022/11/21 04:52:35;;;;;;;42.10;29.55;;;0.60;99.90;;;;;;5037469;28;20071;-62
2022/11/21 04:55:00;;;;;;;40.17;29.38;;;0.60;99.90;;;;;;5058384;28;20421;-63
2022/11/21 04:57:27;;;;;;;38.33;27.92;;;0.50;99.90;;;;;;5054101;28;20041;-64
2022/11/21 04:59:53;;;;;;;39.33;29.13;;;0.60;99.90;;;;;;5037836;28;20056;-63
2022/11/21 05:02:19;;;;;;;40.35;29.83;;;0.50;99.90;;;;;;5057829;28;20040;-62
2022/11/21 05:04:45;;;;;;;41.55;30.52;;;0.40;99.90;;;;;;5039267;28;20041;-63
2022/11/21 05:07:11;;;;;;;42.22;30.27;;;0.40;99.90;;;;;;5054940;28;20044;-63
2022/11/21 05:09:36;;;;;;;42.78;31.50;;;0.40;99.90;;;;;;5022400;28;20044;-63
2022/11/21 05:14:47;;;;;;;43.15;31.50;;;0.30;99.90;;;;;;5037762;28;20048;-63
2022/11/21 05:17:12;;;;;;;44.97;33.15;;;0.40;99.90;;;;;;5056970;28;20079;-63
2022/11/21 05:19:38;;;;;;;49.10;35.50;;;0.10;99.90;;;;;;5057217;28;20560;-64
2022/11/21 05:22:04;;;;;;;47.55;34.42;;;0.30;99.90;;;;;;5055095;28;20036;-62
2022/11/21 05:24:29;;;;;;;41.28;30.77;;;0.30;99.90;;;;;;5057381;28;20485;-62
2022/11/21 05:26:55;;;;;;;41.55;29.77;;;0.30;99.90;;;;;;5039126;28;20421;-64
2022/11/21 05:29:21;;;;;;;43.58;30.77;;;0.10;99.90;;;;;;5019599;28;20410;-63
2022/11/21 05:31:46;;;;;;;46.15;31.65;;;0.00;99.90;;;;;;5038106;28;20044;-64
2022/11/21 05:34:12;;;;;;;42.28;30.90;;;-0.10;99.90;;;;;;5056195;28;20048;-63
2022/11/21 05:36:38;;;;;;;43.40;30.88;;;0.00;99.90;;;;;;5055196;28;20624;-64
2022/11/21 05:39:04;;;;;;;46.60;33.20;;;-0.30;99.90;;;;;;5019978;28;20200;-63
2022/11/21 05:41:30;;;;;;;47.50;33.88;;;0.00;99.90;;;;;;5056529;28;20310;-64
2022/11/21 05:43:56;;;;;;;49.65;33.30;;;-0.40;99.90;;;;;;5053653;28;20042;-63
2022/11/21 05:46:23;;;;;;;49.28;33.97;;;-0.30;99.90;;;;;;5036616;28;20141;-63
2022/11/21 05:48:51;;;;;;;47.67;33.70;;;-0.40;99.90;;;;;;5038134;28;20497;-63
2022/11/21 05:51:17;;;;;;;53.22;35.22;;;-0.60;99.90;;;;;;5038090;28;20051;-64
2022/11/21 05:53:44;;;;;;;50.88;36.13;;;-0.50;99.90;;;;;;5053702;28;20612;-63
2022/11/21 05:56:12;;;;;;;53.92;35.95;;;-0.40;99.90;;;;;;5056410;28;20221;-64
2022/11/21 05:58:38;;;;;;;52.13;36.97;;;-0.90;99.90;;;;;;5055294;28;20043;-63
2022/11/21 06:01:05;;;;;;;54.88;38.75;;;-0.90;99.90;;;;;;5051710;28;20241;-62
2022/11/21 06:03:34;;;;;;;57.05;38.40;;;-0.70;99.90;;;;;;5056451;28;20040;-63
2022/11/21 06:06:09;;;;;;;59.28;37.85;;;-0.90;99.90;;;;;;5038334;28;20805;-63
2022/11/21 06:08:40;;;;;;;54.75;36.92;;;-0.60;99.90;;;;;;5034199;28;20044;-63
2022/11/21 06:11:07;;;;;;;55.00;37.80;;;-0.50;99.90;;;;;;5036657;28;20139;-62
2022/11/21 06:13:33;;;;;;;54.05;37.42;;;-1.00;99.90;;;;;;5056678;28;20051;-63
2022/11/21 06:16:01;;;;;;;58.35;38.53;;;-0.60;99.90;;;;;;5051181;28;20398;-63
2022/11/21 06:18:27;;;;;;;58.25;36.67;;;-1.00;99.90;;;;;;5037776;28;20037;-64
2022/11/21 06:20:53;;;;;;;62.60;39.08;;;-0.60;99.90;;;;;;5035721;28;20051;-64
2022/11/21 06:23:19;;;;;;;64.22;40.13;;;-0.60;99.90;;;;;;5034902;28;20056;-65
2022/11/21 06:25:45;;;;;;;60.88;39.10;;;-0.80;99.90;;;;;;5035693;28;20047;-64
2022/11/21 06:28:10;;;;;;;61.03;37.85;;;-0.80;99.90;;;;;;5036262;28;20049;-64
2022/11/21 06:30:37;;;;;;;57.05;38.28;;;-0.50;99.90;;;;;;5034514;28;20048;-65
2022/11/21 06:33:05;;;;;;;56.40;36.78;;;-1.00;99.90;;;;;;5033364;28;20048;-64
2022/11/21 06:35:31;;;;;;;63.42;39.88;;;-1.00;99.90;;;;;;5054281;28;20055;-64
2022/11/21 06:37:57;;;;;;;61.05;38.92;;;-0.60;99.90;;;;;;5036752;28;20037;-64
2022/11/21 06:40:23;;;;;;;56.47;37.42;;;-0.80;99.90;;;;;;5053667;28;20055;-64
2022/11/21 06:42:49;;;;;;;54.47;34.15;;;-0.80;99.90;;;;;;5053198;28;20557;-64
2022/11/21 06:45:15;;;;;;;51.50;34.00;;;-0.80;99.90;;;;;;5037026;28;20049;-65
2022/11/21 06:47:41;;;;;;;51.90;36.92;;;-0.70;99.90;;;;;;5050895;28;20518;-65
2022/11/21 06:50:07;;;;;;;57.13;38.05;;;-0.50;99.90;;;;;;5012326;28;20260;-64
2022/11/21 06:52:34;;;;;;;51.05;36.45;;;-0.40;99.90;;;;;;5054420;28;20131;-64
2022/11/21 06:54:59;;;;;;;56.95;37.65;;;-0.20;99.90;;;;;;5036291;28;20549;-65
2022/11/21 06:57:25;;;;;;;57.50;37.42;;;-0.20;99.90;;;;;;5055516;28;20037;-64
2022/11/21 06:59:51;;;;;;;56.65;37.67;;;-0.50;99.90;;;;;;5034787;28;20067;-64
2022/11/21 07:02:16;;;;;;;52.38;35.80;;;-0.60;99.90;;;;;;5052717;28;20283;-64
2022/11/21 07:04:42;;;;;;;51.50;36.95;;;-0.20;99.90;;;;;;5051800;28;20036;-63
2022/11/21 07:07:07;;;;;;;54.03;37.08;;;-0.20;99.90;;;;;;5037831;28;20111;-64
2022/11/21 07:09:34;;;;;;;52.13;37.15;;;-0.20;99.90;;;;;;5054093;28;20490;-64
2022/11/21 07:13:20;;;;;;;53.72;36.05;;;-0.20;99.90;;;;;;5036376;28;20239;-65
2022/11/21 07:14:46;;;;;;;52.83;34.63;;;-0.10;99.90;;;;;;5038679;28;20130;-65
2022/11/21 07:17:13;;;;;;;54.97;37.47;;;0.10;99.90;;;;;;5020581;28;20060;-65
2022/11/21 07:19:39;;;;;;;50.55;33.20;;;-0.20;99.90;;;;;;5034763;28;20163;-66
2022/11/21 07:22:07;;;;;;;52.47;33.58;;;0.00;99.90;;;;;;5012911;28;20120;-65
2022/11/21 07:24:32;;;;;;;52.72;34.72;;;-0.20;99.90;;;;;;5038748;28;20584;-65
2022/11/21 07:26:59;;;;;;;54.72;36.15;;;-0.30;99.90;;;;;;5056149;28;20063;-64
2022/11/21 07:29:25;;;;;;;50.47;35.78;;;0.00;99.90;;;;;;5038523;28;20529;-66
2022/11/21 07:31:51;;;;;;;51.75;35.70;;;-0.40;99.90;;;;;;5040208;28;20125;-66
2022/11/21 07:34:16;;;;;;;50.70;35.58;;;-0.20;99.90;;;;;;5035155;28;20132;-63
2022/11/21 07:36:42;;;;;;;49.30;34.00;;;0.00;99.90;;;;;;5058916;28;20406;-64
2022/11/21 07:39:08;;;;;;;52.80;35.85;;;-0.20;99.90;;;;;;5056360;28;20123;-64
2022/11/21 07:41:33;;;;;;;53.22;36.25;;;-0.10;99.90;;;;;;5056024;28;20044;-65
2022/11/21 07:43:59;;;;;;;47.55;33.72;;;-0.10;99.90;;;;;;5057520;28;20024;-65
2022/11/21 07:46:25;;;;;;;45.67;33.90;;;-0.10;99.90;;;;;;5039183;28;20462;-64
2022/11/21 07:48:50;;;;;;;50.38;35.20;;;0.00;99.90;;;;;;5020923;28;20054;-65
2022/11/21 07:51:16;;;;;;;51.17;34.25;;;0.20;99.90;;;;;;5035668;28;20052;-65
2022/11/21 07:53:42;;;;;;;46.88;33.10;;;-0.10;99.90;;;;;;5037529;28;20052;-64
2022/11/21 07:56:10;;;;;;;51.65;35.55;;;-0.10;99.90;;;;;;5037987;28;20128;-66
2022/11/21 07:58:36;;;;;;;47.53;32.45;;;0.00;99.90;;;;;;5039033;28;20045;-64
2022/11/21 08:01:06;;;;;;;48.50;33.80;;;0.00;99.90;;;;;;5038085;28;20101;-65
2022/11/21 08:03:32;;;;;;;49.92;34.10;;;0.20;99.90;;;;;;5038668;28;20076;-64
2022/11/21 08:06:04;;;;;;;48.63;34.58;;;0.10;99.90;;;;;;5053768;28;20093;-64
2022/11/21 08:08:30;;;;;;;49.05;33.92;;;0.30;99.90;;;;;;5020269;28;20044;-65
2022/11/21 08:10:56;;;;;;;46.35;32.40;;;0.20;99.90;;;;;;5040755;28;20044;-65
2022/11/21 08:13:22;;;;;;;47.20;31.90;;;0.20;99.90;;;;;;5022280;28;20157;-65
2022/11/21 08:15:47;;;;;;;43.95;32.55;;;0.30;99.90;;;;;;5039630;28;20079;-65
2022/11/21 08:18:18;;;;;;;48.55;33.78;;;0.20;99.90;;;;;;5056070;28;20386;-65
2022/11/21 08:20:44;;;;;;;51.90;34.83;;;0.20;99.90;;;;;;5035928;28;20140;-64
2022/11/21 08:23:10;;;;;;;47.42;33.45;;;0.10;99.90;;;;;;5053334;28;20047;-65
2022/11/21 08:25:37;;;;;;;48.85;33.10;;;0.40;99.90;;;;;;5055144;28;20036;-65
2022/11/21 08:28:03;;;;;;;46.53;32.92;;;0.30;99.90;;;;;;5054721;28;20098;-65
2022/11/21 08:30:30;;;;;;;46.33;30.75;;;0.20;99.90;;;;;;5037811;28;20048;-64
2022/11/21 08:32:57;;;;;;;42.55;30.40;;;0.40;99.90;;;;;;5038361;28;20464;-65
2022/11/21 08:35:27;;;;;;;44.55;31.90;;;0.40;99.90;;;;;;5036553;28;20455;-64
2022/11/21 08:37:59;;;;;;;45.38;31.55;;;0.40;99.90;;;;;;5035625;28;20044;-64
2022/11/21 08:40:27;;;;;;;43.83;32.30;;;0.60;99.90;;;;;;5054732;28;20652;-64
2022/11/21 08:43:03;;;;;;;44.58;32.15;;;0.70;99.90;;;;;;5054732;28;20419;-65
2022/11/21 08:45:30;;;;;;;42.40;30.27;;;0.50;99.90;;;;;;5037676;28;20314;-64
2022/11/21 08:47:56;;;;;;;39.97;30.52;;;0.60;99.90;;;;;;5021899;28;20071;-65
2022/11/21 08:50:22;;;;;;;42.13;30.25;;;0.80;99.90;;;;;;5037449;28;20123;-64
2022/11/21 08:52:47;;;;;;;39.75;29.85;;;0.90;99.90;;;;;;5035971;28;20498;-64
2022/11/21 08:55:14;;;;;;;39.80;29.00;;;0.70;99.90;;;;;;5036087;28;20051;-64
2022/11/21 08:57:41;;;;;;;44.63;29.90;;;0.80;99.90;;;;;;5057723;28;20072;-62
2022/11/21 09:00:08;;;;;;;41.80;29.90;;;1.00;99.90;;;;;;5055311;28;20494;-63
2022/11/21 09:02:34;;;;;;;40.80;30.30;;;1.00;99.90;;;;;;5040210;28;20056;-63
2022/11/21 09:05:00;;;;;;;41.85;28.98;;;1.00;99.90;;;;;;5038813;28;20433;-63
2022/11/21 09:07:26;;;;;;;39.08;27.05;;;1.20;99.90;;;;;;5055587;28;20048;-62
2022/11/21 09:09:52;;;;;;;39.50;28.35;;;1.40;99.90;;;;;;5035809;28;20333;-63
2022/11/21 09:12:17;;;;;;;39.97;28.35;;;1.50;99.90;;;;;;5055008;28;20151;-63
2022/11/21 09:20:12;;;;;;;40.38;29.80;;;1.60;99.90;;;;;;5056346;28;20131;-63
2022/11/21 09:22:37;;;;;;;40.80;30.02;;;1.70;99.90;;;;;;5053320;28;20067;-63
2022/11/21 09:25:03;;;;;;;39.03;29.35;;;1.80;99.90;;;;;;5053522;28;20033;-65
2022/11/21 09:27:30;;;;;;;39.40;30.30;;;1.80;99.90;;;;;;5037927;28;20040;-64
2022/11/21 09:29:55;;;;;;;33.47;24.77;;;1.80;99.90;;;;;;5037265;28;20044;-64
2022/11/21 09:32:21;;;;;;;35.47;25.98;;;1.80;99.90;;;;;;5038172;28;20052;-64
2022/11/21 09:34:47;;;;;;;37.28;26.90;;;1.80;99.90;;;;;;5038727;28;20044;-64
2022/11/21 09:37:13;;;;;;;33.13;26.42;;;1.70;99.90;;;;;;5054832;28;20498;-64
2022/11/21 09:39:39;;;;;;;37.85;26.95;;;1.70;99.90;;;;;;5037074;28;20044;-63
2022/11/21 09:42:39;;;;;;;35.80;26.30;;;1.70;99.90;;;;;;5035304;28;20040;-64
2022/11/21 09:45:06;;;;;;;34.78;26.80;;;1.70;99.90;;;;;;5056189;28;20040;-63
2022/11/21 09:47:36;;;;;;;30.58;23.92;;;1.80;99.90;;;;;;5058580;28;20040;-62
2022/11/21 09:50:13;;;;;;;34.88;27.20;;;1.90;99.90;;;;;;5038939;28;20044;-63
2022/11/21 09:52:38;;;;;;;33.00;26.73;;;1.90;99.90;;;;;;5036583;28;20047;-64
2022/11/21 09:55:15;;;;;;;34.08;25.05;;;1.90;99.90;;;;;;5057115;28;20481;-63
2022/11/21 09:57:43;;;;;;;35.42;26.08;;;2.00;99.90;;;;;;5054334;28;20036;-63
2022/11/21 10:00:18;;;;;;;31.98;26.02;;;2.00;99.90;;;;;;5038479;28;20153;-63
2022/11/21 10:02:44;;;;;;;32.08;24.52;;;2.10;99.90;;;;;;5055516;28;20040;-63
2022/11/21 10:05:14;;;;;;;32.40;24.95;;;2.20;99.90;;;;;;5056841;28;20043;-64
2022/11/21 10:07:41;;;;;;;33.42;25.65;;;2.20;99.90;;;;;;5026649;28;20033;-64
2022/11/21 10:10:12;;;;;;;31.63;24.98;;;2.20;99.90;;;;;;5038042;28;20048;-64
2022/11/21 10:13:14;;;;;;;32.90;25.25;;;2.30;99.90;;;;;;5036622;28;20040;-64
2022/11/21 10:16:00;;;;;;;31.83;24.02;;;2.30;99.90;;;;;;5055811;28;20036;-64
2022/11/21 10:18:54;;;;;;;31.45;23.27;;;2.30;99.90;;;;;;5055853;28;20032;-62
2022/11/21 10:21:44;;;;;;;32.65;25.33;;;2.40;99.90;;;;;;5056207;28;20048;-63
2022/11/21 10:24:48;;;;;;;28.77;20.85;;;2.50;99.90;;;;;;5036761;28;20052;-63
2022/11/21 10:27:32;;;;;;;30.40;24.33;;;2.60;99.90;;;;;;5010945;28;20049;-65
2022/11/21 10:30:05;;;;;;;29.55;23.63;;;2.60;99.90;;;;;;5036160;28;20057;-62
2022/11/21 10:32:37;;;;;;;29.25;21.45;;;2.60;99.90;;;;;;5053880;28;20766;-63
2022/11/21 10:35:40;;;;;;;30.63;24.17;;;2.70;99.90;;;;;;5038692;28;20129;-63
2022/11/21 10:38:24;;;;;;;26.95;22.77;;;3.00;99.90;;;;;;5029321;28;20490;-63
2022/11/21 10:41:14;;;;;;;27.27;22.10;;;3.10;99.90;;;;;;5054231;28;20093;-65
2022/11/21 10:47:26;;;;;;;29.90;20.90;;;3.50;99.90;;;;;;5049628;28;20547;-64
2022/11/21 10:50:04;;;;;;;27.92;21.52;;;3.60;99.90;;;;;;5037733;28;20299;-63
2022/11/21 10:52:34;;;;;;;27.90;22.35;;;3.50;99.90;;;;;;5037999;28;20150;-64
2022/11/21 10:55:03;;;;;;;27.13;21.45;;;3.50;99.90;;;;;;5054001;28;20115;-63
2022/11/21 10:57:49;;;;;;;29.98;22.42;;;3.60;99.90;;;;;;5056020;28;20059;-64
2022/11/21 11:00:21;;;;;;;26.83;22.20;;;3.60;99.90;;;;;;5018129;28;20465;-64
2022/11/21 11:02:55;;;;;;;26.05;21.63;;;3.70;99.90;;;;;;5053959;28;20043;-63
2022/11/21 11:05:23;;;;;;;25.60;20.38;;;3.70;99.90;;;;;;5037616;28;20040;-63
2022/11/21 11:08:00;;;;;;;26.35;21.67;;;3.90;99.90;;;;;;5055174;28;20047;-63
2022/11/21 11:10:26;;;;;;;27.63;20.88;;;4.10;99.90;;;;;;5019611;28;20067;-63
2022/11/21 11:15:50;;;;;;;26.10;19.38;;;4.50;99.90;;;;;;5037114;28;20127;-63
2022/11/21 11:18:22;;;;;;;23.30;19.20;;;4.40;99.90;;;;;;5035101;28;20048;-63
2022/11/21 11:20:48;;;;;;;23.95;19.65;;;4.30;99.90;;;;;;5055364;28;20076;-64
2022/11/21 11:23:21;;;;;;;24.05;19.17;;;4.10;99.90;;;;;;5055471;28;20067;-64
2022/11/21 11:25:51;;;;;;;23.15;18.40;;;3.90;99.90;;;;;;5054578;28;20253;-64
2022/11/21 11:28:22;;;;;;;24.25;20.27;;;3.70;99.90;;;;;;5037517;28;20048;-64
2022/11/21 11:30:50;;;;;;;24.92;19.08;;;3.40;99.90;;;;;;5056160;28;20429;-62
2022/11/21 11:33:35;;;;;;;23.40;19.58;;;3.30;99.90;;;;;;5051376;28;20524;-65
2022/11/21 11:36:19;;;;;;;23.85;18.83;;;3.40;99.90;;;;;;5036831;28;20449;-63
2022/11/21 11:38:53;;;;;;;23.98;19.75;;;3.50;99.90;;;;;;5054107;28;20076;-64
2022/11/21 11:47:29;;;;;;;23.85;17.27;;;3.70;99.90;;;;;;5053685;28;20477;-63
2022/11/21 11:47:46;;;;;;;22.00;16.85;;;4.20;99.90;;;;;;5038204;28;20049;-62
2022/11/21 11:50:28;;;;;;;21.40;17.00;;;4.10;99.90;;;;;;5054872;28;20084;-62
2022/11/21 11:53:13;;;;;;;25.92;19.10;;;3.90;99.90;;;;;;5054975;28;20152;-64
2022/11/21 11:56:04;;;;;;;25.48;19.23;;;3.80;99.90;;;;;;5037301;28;20435;-63
2022/11/21 11:58:33;;;;;;;22.63;18.20;;;3.70;99.90;;;;;;5054430;28;20499;-62
2022/11/21 12:00:58;;;;;;;22.08;17.55;;;3.70;99.90;;;;;;5037438;28;20126;-63
2022/11/21 12:03:41;;;;;;;20.70;17.05;;;3.80;99.90;;;;;;5054021;28;20582;-64
2022/11/21 12:06:36;;;;;;;20.10;16.30;;;3.70;99.90;;;;;;5054558;28;20051;-63
2022/11/21 12:09:13;;;;;;;23.02;17.55;;;3.90;99.90;;;;;;5032898;28;20160;-63
2022/11/21 12:12:07;;;;;;;21.63;16.95;;;3.80;99.90;;;;;;5058658;28;20045;-64
2022/11/21 12:18:08;;;;;;;19.52;15.38;;;3.70;99.90;;;;;;5058826;28;20084;-64
2022/11/21 12:20:44;;;;;;;19.65;15.77;;;3.90;99.90;;;;;;5035871;28;20040;-64
2022/11/21 12:23:12;;;;;;;18.58;13.68;;;4.10;99.90;;;;;;5040745;28;20040;-67
2022/11/21 12:25:48;;;;;;;19.80;15.15;;;4.10;99.90;;;;;;5039945;28;20063;-64
2022/11/21 12:28:25;;;;;;;15.75;13.48;;;4.10;99.90;;;;;;5057498;28;20036;-64
2022/11/21 12:31:00;;;;;;;18.15;15.88;;;4.10;99.90;;;;;;5058403;28;20249;-64
2022/11/21 12:33:26;;;;;;;18.50;14.57;;;4.10;99.90;;;;;;5057298;28;20061;-64
2022/11/21 12:36:10;;;;;;;17.50;15.20;;;4.00;99.90;;;;;;5054182;28;20080;-65
2022/11/21 12:38:39;;;;;;;;;;;3.90;99.90;;;;;;5040293;28;20050;-65
2022/11/21 12:44:38;;;;;;;15.30;12.65;;;4.00;99.90;;;;;;4976939;28;20543;-64
2022/11/21 12:54:29;;;;;;;16.50;13.95;;;3.90;99.90;;;;;;5058402;28;20040;-63
2022/11/21 12:56:53;;;;;;;15.48;12.68;;;4.00;99.90;;;;;;5042413;28;20095;-65
2022/11/21 12:59:18;;;;;;;15.52;12.73;;;4.00;99.90;;;;;;5057852;28;20044;-66
2022/11/21 13:01:57;;;;;;;14.82;12.82;;;4.00;99.90;;;;;;5038487;28;20057;-63
2022/11/21 13:04:32;;;;;;;13.63;11.48;;;4.10;99.90;;;;;;5037998;28;20558;-66
2022/11/21 13:07:00;;;;;;;14.35;12.13;;;4.30;99.90;;;;;;5034527;28;20124;-65
2022/11/21 13:09:29;;;;;;;15.48;11.93;;;4.50;99.90;;;;;;5037632;28;20162;-68
2022/11/21 13:12:20;;;;;;;13.65;11.35;;;4.70;99.90;;;;;;5038049;28;20041;-64
2022/11/21 13:15:09;;;;;;;14.65;12.15;;;5.00;99.90;;;;;;5037639;28;20423;-65
2022/11/21 13:17:44;;;;;;;11.27;9.68;;;5.20;99.90;;;;;;5038182;28;20095;-65